sensor_id;sensor_type;location;lat;lon;timestamp;P1;durP1;ratioP1;P2;durP2;ratioP2
74900;SDS011;63461;51.416;6.758;2023-07-24T00:01:58;11.88;;;4.50;;
74900;SDS011;63461;51.416;6.758;2023-07-24T00:04:24;14.18;;;4.15;;
74900;SDS011;63461;51.416;6.758;2023-07-24T00:06:50;6.22;;;3.60;;
74900;SDS011;63461;51.416;6.758;2023-07-24T00:09:16;8.25;;;3.67;;
74900;SDS011;63461;51.416;6.758;2023-07-24T00:11:41;5.10;;;3.08;;
74900;SDS011;63461;51.416;6.758;2023-07-24T00:14:07;5.13;;;2.85;;
74900;SDS011;63461;51.416;6.758;2023-07-24T00:16:33;6.97;;;3.10;;
74900;SDS011;63461;51.416;6.758;2023-07-24T00:18:59;4.35;;;2.95;;
74900;SDS011;63461;51.416;6.758;2023-07-24T00:21:24;5.60;;;3.00;;
74900;SDS011;63461;51.416;6.758;2023-07-24T00:23:50;6.30;;;3.15;;
74900;SDS011;63461;51.416;6.758;2023-07-24T00:26:16;6.05;;;3.47;;
74900;SDS011;63461;51.416;6.758;2023-07-24T00:28:41;6.35;;;3.42;;
74900;SDS011;63461;51.416;6.758;2023-07-24T00:31:07;5.43;;;3.40;;
74900;SDS011;63461;51.416;6.758;2023-07-24T00:33:33;6.70;;;3.40;;
74900;SDS011;63461;51.416;6.758;2023-07-24T00:35:59;6.65;;;3.50;;
74900;SDS011;63461;51.416;6.758;2023-07-24T00:38:24;5.90;;;3.10;;
74900;SDS011;63461;51.416;6.758;2023-07-24T00:40:50;8.60;;;3.88;;
74900;SDS011;63461;51.416;6.758;2023-07-24T00:43:16;5.32;;;3.50;;
74900;SDS011;63461;51.416;6.758;2023-07-24T00:45:42;5.55;;;3.17;;
74900;SDS011;63461;51.416;6.758;2023-07-24T00:48:10;8.07;;;3.80;;
74900;SDS011;63461;51.416;6.758;2023-07-24T00:50:38;6.22;;;3.55;;
74900;SDS011;63461;51.416;6.758;2023-07-24T00:53:05;6.75;;;3.45;;
74900;SDS011;63461;51.416;6.758;2023-07-24T00:55:31;6.80;;;3.28;;
74900;SDS011;63461;51.416;6.758;2023-07-24T00:57:59;8.93;;;3.08;;
74900;SDS011;63461;51.416;6.758;2023-07-24T01:00:26;6.15;;;3.40;;
74900;SDS011;63461;51.416;6.758;2023-07-24T01:02:52;7.43;;;3.50;;
74900;SDS011;63461;51.416;6.758;2023-07-24T01:05:19;6.28;;;3.35;;
74900;SDS011;63461;51.416;6.758;2023-07-24T01:07:46;5.90;;;3.55;;
74900;SDS011;63461;51.416;6.758;2023-07-24T01:10:12;6.90;;;3.58;;
74900;SDS011;63461;51.416;6.758;2023-07-24T01:12:44;6.63;;;3.30;;
74900;SDS011;63461;51.416;6.758;2023-07-24T01:15:19;5.90;;;2.95;;
74900;SDS011;63461;51.416;6.758;2023-07-24T01:17:52;6.90;;;3.65;;
74900;SDS011;63461;51.416;6.758;2023-07-24T01:20:23;6.88;;;3.75;;
74900;SDS011;63461;51.416;6.758;2023-07-24T01:23:04;6.85;;;3.75;;
74900;SDS011;63461;51.416;6.758;2023-07-24T01:25:58;7.07;;;3.67;;
74900;SDS011;63461;51.416;6.758;2023-07-24T01:28:26;9.23;;;3.60;;
74900;SDS011;63461;51.416;6.758;2023-07-24T01:30:52;5.88;;;3.40;;
74900;SDS011;63461;51.416;6.758;2023-07-24T01:33:19;5.45;;;3.13;;
74900;SDS011;63461;51.416;6.758;2023-07-24T01:35:48;12.05;;;3.75;;
74900;SDS011;63461;51.416;6.758;2023-07-24T01:38:17;9.50;;;3.40;;
74900;SDS011;63461;51.416;6.758;2023-07-24T01:40:44;8.07;;;3.85;;
74900;SDS011;63461;51.416;6.758;2023-07-24T01:43:11;6.35;;;3.45;;
74900;SDS011;63461;51.416;6.758;2023-07-24T01:45:37;7.28;;;3.67;;
74900;SDS011;63461;51.416;6.758;2023-07-24T01:48:06;7.25;;;3.60;;
74900;SDS011;63461;51.416;6.758;2023-07-24T01:50:32;8.23;;;3.60;;
74900;SDS011;63461;51.416;6.758;2023-07-24T01:52:58;6.55;;;3.58;;
74900;SDS011;63461;51.416;6.758;2023-07-24T01:55:23;5.47;;;3.05;;
74900;SDS011;63461;51.416;6.758;2023-07-24T01:57:49;7.90;;;3.60;;
74900;SDS011;63461;51.416;6.758;2023-07-24T02:00:15;5.80;;;3.42;;
74900;SDS011;63461;51.416;6.758;2023-07-24T02:02:41;6.95;;;3.80;;
74900;SDS011;63461;51.416;6.758;2023-07-24T02:05:07;8.00;;;4.03;;
74900;SDS011;63461;51.416;6.758;2023-07-24T02:07:33;6.60;;;3.85;;
74900;SDS011;63461;51.416;6.758;2023-07-24T02:09:59;7.05;;;3.88;;
74900;SDS011;63461;51.416;6.758;2023-07-24T02:12:25;6.82;;;3.55;;
74900;SDS011;63461;51.416;6.758;2023-07-24T02:14:51;6.63;;;3.78;;
74900;SDS011;63461;51.416;6.758;2023-07-24T02:17:17;6.18;;;3.83;;
74900;SDS011;63461;51.416;6.758;2023-07-24T02:19:44;7.80;;;4.32;;
74900;SDS011;63461;51.416;6.758;2023-07-24T02:22:10;11.10;;;4.00;;
74900;SDS011;63461;51.416;6.758;2023-07-24T02:24:36;6.82;;;3.33;;
74900;SDS011;63461;51.416;6.758;2023-07-24T02:27:02;5.57;;;2.95;;
74900;SDS011;63461;51.416;6.758;2023-07-24T02:29:30;10.18;;;3.78;;
74900;SDS011;63461;51.416;6.758;2023-07-24T02:31:57;7.20;;;3.50;;
74900;SDS011;63461;51.416;6.758;2023-07-24T02:34:23;7.95;;;4.50;;
74900;SDS011;63461;51.416;6.758;2023-07-24T02:36:54;7.57;;;3.50;;
74900;SDS011;63461;51.416;6.758;2023-07-24T02:39:20;10.75;;;4.15;;
74900;SDS011;63461;51.416;6.758;2023-07-24T02:41:47;8.07;;;3.88;;
74900;SDS011;63461;51.416;6.758;2023-07-24T02:44:14;7.95;;;3.95;;
74900;SDS011;63461;51.416;6.758;2023-07-24T02:46:40;10.55;;;4.03;;
74900;SDS011;63461;51.416;6.758;2023-07-24T02:49:05;7.20;;;4.22;;
74900;SDS011;63461;51.416;6.758;2023-07-24T02:51:32;8.73;;;4.00;;
74900;SDS011;63461;51.416;6.758;2023-07-24T02:53:58;9.85;;;3.85;;
74900;SDS011;63461;51.416;6.758;2023-07-24T02:56:23;7.80;;;4.05;;
74900;SDS011;63461;51.416;6.758;2023-07-24T02:58:49;7.38;;;4.40;;
74900;SDS011;63461;51.416;6.758;2023-07-24T03:01:15;9.98;;;4.18;;
74900;SDS011;63461;51.416;6.758;2023-07-24T03:03:41;7.15;;;3.70;;
74900;SDS011;63461;51.416;6.758;2023-07-24T03:06:07;10.27;;;4.25;;
74900;SDS011;63461;51.416;6.758;2023-07-24T03:08:33;7.45;;;4.10;;
74900;SDS011;63461;51.416;6.758;2023-07-24T03:10:59;14.95;;;4.50;;
74900;SDS011;63461;51.416;6.758;2023-07-24T03:13:27;6.65;;;3.83;;
74900;SDS011;63461;51.416;6.758;2023-07-24T03:15:53;11.15;;;4.25;;
74900;SDS011;63461;51.416;6.758;2023-07-24T03:18:21;10.73;;;4.15;;
74900;SDS011;63461;51.416;6.758;2023-07-24T03:20:47;11.80;;;4.47;;
74900;SDS011;63461;51.416;6.758;2023-07-24T03:23:13;10.52;;;4.40;;
74900;SDS011;63461;51.416;6.758;2023-07-24T03:25:39;11.02;;;4.60;;
74900;SDS011;63461;51.416;6.758;2023-07-24T03:28:05;11.85;;;5.05;;
74900;SDS011;63461;51.416;6.758;2023-07-24T03:30:31;7.30;;;4.28;;
74900;SDS011;63461;51.416;6.758;2023-07-24T03:32:57;9.90;;;4.50;;
74900;SDS011;63461;51.416;6.758;2023-07-24T03:35:23;9.30;;;4.60;;
74900;SDS011;63461;51.416;6.758;2023-07-24T03:37:48;10.25;;;4.35;;
74900;SDS011;63461;51.416;6.758;2023-07-24T03:40:14;10.18;;;4.55;;
74900;SDS011;63461;51.416;6.758;2023-07-24T03:42:41;9.13;;;4.68;;
74900;SDS011;63461;51.416;6.758;2023-07-24T03:45:07;11.85;;;4.78;;
74900;SDS011;63461;51.416;6.758;2023-07-24T03:47:33;14.23;;;4.80;;
74900;SDS011;63461;51.416;6.758;2023-07-24T03:49:59;8.88;;;4.57;;
74900;SDS011;63461;51.416;6.758;2023-07-24T03:52:25;7.55;;;4.43;;
74900;SDS011;63461;51.416;6.758;2023-07-24T03:54:53;11.60;;;4.70;;
74900;SDS011;63461;51.416;6.758;2023-07-24T03:57:19;10.18;;;4.90;;
74900;SDS011;63461;51.416;6.758;2023-07-24T03:59:44;9.65;;;4.25;;
74900;SDS011;63461;51.416;6.758;2023-07-24T04:02:10;11.88;;;5.05;;
74900;SDS011;63461;51.416;6.758;2023-07-24T04:04:36;12.15;;;4.63;;
74900;SDS011;63461;51.416;6.758;2023-07-24T04:07:03;9.15;;;4.45;;
74900;SDS011;63461;51.416;6.758;2023-07-24T04:09:29;10.43;;;4.60;;
74900;SDS011;63461;51.416;6.758;2023-07-24T04:11:55;10.13;;;5.30;;
74900;SDS011;63461;51.416;6.758;2023-07-24T04:14:21;12.63;;;4.65;;
74900;SDS011;63461;51.416;6.758;2023-07-24T04:16:46;12.45;;;4.60;;
74900;SDS011;63461;51.416;6.758;2023-07-24T04:19:12;7.90;;;4.15;;
74900;SDS011;63461;51.416;6.758;2023-07-24T04:21:38;11.50;;;4.50;;
74900;SDS011;63461;51.416;6.758;2023-07-24T04:24:04;8.85;;;4.60;;
74900;SDS011;63461;51.416;6.758;2023-07-24T04:26:30;13.57;;;4.50;;
74900;SDS011;63461;51.416;6.758;2023-07-24T04:28:56;15.02;;;5.15;;
74900;SDS011;63461;51.416;6.758;2023-07-24T04:31:22;11.68;;;4.10;;
74900;SDS011;63461;51.416;6.758;2023-07-24T04:33:47;13.60;;;4.90;;
74900;SDS011;63461;51.416;6.758;2023-07-24T04:36:13;12.63;;;4.22;;
74900;SDS011;63461;51.416;6.758;2023-07-24T04:38:39;9.95;;;4.53;;
74900;SDS011;63461;51.416;6.758;2023-07-24T04:41:04;15.07;;;5.68;;
74900;SDS011;63461;51.416;6.758;2023-07-24T04:43:30;14.02;;;5.60;;
74900;SDS011;63461;51.416;6.758;2023-07-24T04:45:56;17.38;;;6.65;;
74900;SDS011;63461;51.416;6.758;2023-07-24T04:48:22;16.45;;;6.50;;
74900;SDS011;63461;51.416;6.758;2023-07-24T04:50:52;13.63;;;5.10;;
74900;SDS011;63461;51.416;6.758;2023-07-24T04:53:20;12.70;;;5.60;;
74900;SDS011;63461;51.416;6.758;2023-07-24T04:55:46;16.58;;;6.22;;
74900;SDS011;63461;51.416;6.758;2023-07-24T04:58:12;14.18;;;6.35;;
74900;SDS011;63461;51.416;6.758;2023-07-24T05:00:38;18.85;;;6.47;;
74900;SDS011;63461;51.416;6.758;2023-07-24T05:03:03;13.52;;;6.03;;
74900;SDS011;63461;51.416;6.758;2023-07-24T05:05:30;10.50;;;4.93;;
74900;SDS011;63461;51.416;6.758;2023-07-24T05:07:56;9.55;;;5.03;;
74900;SDS011;63461;51.416;6.758;2023-07-24T05:10:22;15.38;;;5.43;;
74900;SDS011;63461;51.416;6.758;2023-07-24T05:12:48;11.40;;;4.97;;
74900;SDS011;63461;51.416;6.758;2023-07-24T05:15:14;11.98;;;5.22;;
74900;SDS011;63461;51.416;6.758;2023-07-24T05:17:42;10.85;;;4.60;;
74900;SDS011;63461;51.416;6.758;2023-07-24T05:20:09;11.82;;;4.97;;
74900;SDS011;63461;51.416;6.758;2023-07-24T05:22:35;11.65;;;4.60;;
74900;SDS011;63461;51.416;6.758;2023-07-24T05:25:00;10.55;;;4.70;;
74900;SDS011;63461;51.416;6.758;2023-07-24T05:27:26;10.95;;;3.88;;
74900;SDS011;63461;51.416;6.758;2023-07-24T05:29:52;8.77;;;3.70;;
74900;SDS011;63461;51.416;6.758;2023-07-24T05:32:18;10.90;;;4.80;;
74900;SDS011;63461;51.416;6.758;2023-07-24T05:34:43;10.25;;;4.53;;
74900;SDS011;63461;51.416;6.758;2023-07-24T05:37:09;10.15;;;4.25;;
74900;SDS011;63461;51.416;6.758;2023-07-24T05:39:35;9.15;;;4.10;;
74900;SDS011;63461;51.416;6.758;2023-07-24T05:42:01;8.73;;;4.10;;
74900;SDS011;63461;51.416;6.758;2023-07-24T05:44:27;10.85;;;4.63;;
74900;SDS011;63461;51.416;6.758;2023-07-24T05:46:53;10.35;;;4.15;;
74900;SDS011;63461;51.416;6.758;2023-07-24T05:49:19;6.97;;;4.00;;
74900;SDS011;63461;51.416;6.758;2023-07-24T05:51:44;14.32;;;5.07;;
74900;SDS011;63461;51.416;6.758;2023-07-24T05:54:10;14.52;;;5.38;;
74900;SDS011;63461;51.416;6.758;2023-07-24T05:56:36;15.30;;;5.80;;
74900;SDS011;63461;51.416;6.758;2023-07-24T05:59:01;16.13;;;6.40;;
74900;SDS011;63461;51.416;6.758;2023-07-24T06:01:27;14.07;;;6.60;;
74900;SDS011;63461;51.416;6.758;2023-07-24T06:03:53;14.15;;;6.20;;
74900;SDS011;63461;51.416;6.758;2023-07-24T06:06:19;14.23;;;7.05;;
74900;SDS011;63461;51.416;6.758;2023-07-24T06:08:44;20.17;;;7.47;;
74900;SDS011;63461;51.416;6.758;2023-07-24T06:11:12;15.23;;;7.43;;
74900;SDS011;63461;51.416;6.758;2023-07-24T06:13:38;15.77;;;7.22;;
74900;SDS011;63461;51.416;6.758;2023-07-24T06:16:04;15.23;;;6.43;;
74900;SDS011;63461;51.416;6.758;2023-07-24T06:18:30;15.98;;;7.28;;
74900;SDS011;63461;51.416;6.758;2023-07-24T06:20:55;15.57;;;6.97;;
74900;SDS011;63461;51.416;6.758;2023-07-24T06:23:21;15.25;;;6.70;;
74900;SDS011;63461;51.416;6.758;2023-07-24T06:25:47;10.70;;;5.38;;
74900;SDS011;63461;51.416;6.758;2023-07-24T06:28:13;11.20;;;5.90;;
74900;SDS011;63461;51.416;6.758;2023-07-24T06:30:38;15.32;;;6.45;;
74900;SDS011;63461;51.416;6.758;2023-07-24T06:33:04;13.90;;;6.63;;
74900;SDS011;63461;51.416;6.758;2023-07-24T06:35:30;17.67;;;6.22;;
74900;SDS011;63461;51.416;6.758;2023-07-24T06:37:56;13.40;;;5.72;;
74900;SDS011;63461;51.416;6.758;2023-07-24T06:40:22;12.23;;;4.82;;
74900;SDS011;63461;51.416;6.758;2023-07-24T06:42:48;12.65;;;5.32;;
74900;SDS011;63461;51.416;6.758;2023-07-24T06:45:13;11.85;;;5.03;;
74900;SDS011;63461;51.416;6.758;2023-07-24T06:47:41;10.20;;;4.60;;
74900;SDS011;63461;51.416;6.758;2023-07-24T06:50:07;6.45;;;3.75;;
74900;SDS011;63461;51.416;6.758;2023-07-24T06:52:33;11.10;;;4.70;;
74900;SDS011;63461;51.416;6.758;2023-07-24T06:54:59;9.38;;;4.55;;
74900;SDS011;63461;51.416;6.758;2023-07-24T06:57:25;8.43;;;4.30;;
74900;SDS011;63461;51.416;6.758;2023-07-24T06:59:50;7.82;;;4.32;;
74900;SDS011;63461;51.416;6.758;2023-07-24T07:02:16;8.55;;;4.22;;
74900;SDS011;63461;51.416;6.758;2023-07-24T07:04:42;11.10;;;4.50;;
74900;SDS011;63461;51.416;6.758;2023-07-24T07:07:08;7.95;;;4.05;;
74900;SDS011;63461;51.416;6.758;2023-07-24T07:09:35;10.38;;;4.00;;
74900;SDS011;63461;51.416;6.758;2023-07-24T07:12:01;8.38;;;4.82;;
74900;SDS011;63461;51.416;6.758;2023-07-24T07:14:27;12.82;;;4.88;;
74900;SDS011;63461;51.416;6.758;2023-07-24T07:16:52;10.85;;;4.53;;
74900;SDS011;63461;51.416;6.758;2023-07-24T07:19:18;10.30;;;4.85;;
74900;SDS011;63461;51.416;6.758;2023-07-24T07:21:44;8.93;;;4.60;;
74900;SDS011;63461;51.416;6.758;2023-07-24T07:24:09;7.72;;;4.22;;
74900;SDS011;63461;51.416;6.758;2023-07-24T07:26:35;7.38;;;4.88;;
74900;SDS011;63461;51.416;6.758;2023-07-24T07:29:01;12.55;;;4.75;;
74900;SDS011;63461;51.416;6.758;2023-07-24T07:31:27;11.05;;;4.85;;
74900;SDS011;63461;51.416;6.758;2023-07-24T07:33:53;12.10;;;5.10;;
74900;SDS011;63461;51.416;6.758;2023-07-24T07:36:18;10.23;;;5.20;;
74900;SDS011;63461;51.416;6.758;2023-07-24T07:38:44;12.10;;;4.72;;
74900;SDS011;63461;51.416;6.758;2023-07-24T07:41:10;9.63;;;4.65;;
74900;SDS011;63461;51.416;6.758;2023-07-24T07:43:36;8.88;;;3.83;;
74900;SDS011;63461;51.416;6.758;2023-07-24T07:46:02;7.60;;;3.97;;
74900;SDS011;63461;51.416;6.758;2023-07-24T07:48:28;8.00;;;3.83;;
74900;SDS011;63461;51.416;6.758;2023-07-24T07:50:54;7.85;;;4.07;;
74900;SDS011;63461;51.416;6.758;2023-07-24T07:53:20;7.05;;;2.92;;
74900;SDS011;63461;51.416;6.758;2023-07-24T07:55:45;4.68;;;3.10;;
74900;SDS011;63461;51.416;6.758;2023-07-24T07:58:11;5.75;;;2.90;;
74900;SDS011;63461;51.416;6.758;2023-07-24T08:00:37;4.93;;;2.58;;
74900;SDS011;63461;51.416;6.758;2023-07-24T08:03:06;4.68;;;2.30;;
74900;SDS011;63461;51.416;6.758;2023-07-24T08:05:35;7.38;;;2.05;;
74900;SDS011;63461;51.416;6.758;2023-07-24T08:08:00;3.08;;;2.00;;
74900;SDS011;63461;51.416;6.758;2023-07-24T08:13:34;4.45;;;2.20;;
74900;SDS011;63461;51.416;6.758;2023-07-24T08:29:41;4.15;;;2.50;;
74900;SDS011;63461;51.416;6.758;2023-07-24T08:34:00;6.13;;;2.67;;
74900;SDS011;63461;51.416;6.758;2023-07-24T08:37:01;3.65;;;1.90;;
74900;SDS011;63461;51.416;6.758;2023-07-24T08:40:28;2.60;;;2.00;;
74900;SDS011;63461;51.416;6.758;2023-07-24T09:12:41;3.50;;;1.80;;
74900;SDS011;63461;51.416;6.758;2023-07-24T09:46:43;2.88;;;1.63;;
74900;SDS011;63461;51.416;6.758;2023-07-24T10:01:57;2.97;;;2.20;;
74900;SDS011;63461;51.416;6.758;2023-07-24T10:23:36;5.07;;;2.70;;
74900;SDS011;63461;51.416;6.758;2023-07-24T10:57:33;7.80;;;4.85;;
74900;SDS011;63461;51.416;6.758;2023-07-24T11:03:51;6.18;;;4.15;;
74900;SDS011;63461;51.416;6.758;2023-07-24T11:06:52;11.57;;;4.88;;
74900;SDS011;63461;51.416;6.758;2023-07-24T11:10:02;8.20;;;4.32;;
74900;SDS011;63461;51.416;6.758;2023-07-24T11:14:00;7.93;;;3.50;;
74900;SDS011;63461;51.416;6.758;2023-07-24T11:17:04;7.93;;;4.07;;
74900;SDS011;63461;51.416;6.758;2023-07-24T11:23:25;7.30;;;3.25;;
74900;SDS011;63461;51.416;6.758;2023-07-24T11:27:19;7.25;;;3.30;;
74900;SDS011;63461;51.416;6.758;2023-07-24T11:30:41;6.10;;;3.30;;
74900;SDS011;63461;51.416;6.758;2023-07-24T11:38:10;4.95;;;3.25;;
74900;SDS011;63461;51.416;6.758;2023-07-24T11:41:33;8.27;;;3.67;;
74900;SDS011;63461;51.416;6.758;2023-07-24T11:48:50;4.95;;;3.05;;
74900;SDS011;63461;51.416;6.758;2023-07-24T11:52:24;7.20;;;3.67;;
74900;SDS011;63461;51.416;6.758;2023-07-24T11:56:13;5.45;;;3.17;;
74900;SDS011;63461;51.416;6.758;2023-07-24T11:59:40;9.18;;;3.95;;
74900;SDS011;63461;51.416;6.758;2023-07-24T12:02:50;4.22;;;3.05;;
74900;SDS011;63461;51.416;6.758;2023-07-24T12:13:22;6.75;;;3.17;;
74900;SDS011;63461;51.416;6.758;2023-07-24T12:16:23;4.18;;;2.67;;
74900;SDS011;63461;51.416;6.758;2023-07-24T12:19:26;7.32;;;2.85;;
74900;SDS011;63461;51.416;6.758;2023-07-24T12:22:48;4.88;;;2.78;;
74900;SDS011;63461;51.416;6.758;2023-07-24T12:25:40;5.55;;;2.90;;
74900;SDS011;63461;51.416;6.758;2023-07-24T12:28:48;6.25;;;3.13;;
74900;SDS011;63461;51.416;6.758;2023-07-24T12:31:32;4.65;;;2.58;;
74900;SDS011;63461;51.416;6.758;2023-07-24T12:34:31;6.60;;;2.42;;
74900;SDS011;63461;51.416;6.758;2023-07-24T12:37:28;4.82;;;2.38;;
74900;SDS011;63461;51.416;6.758;2023-07-24T12:40:37;7.82;;;1.88;;
74900;SDS011;63461;51.416;6.758;2023-07-24T12:43:25;4.10;;;1.88;;
74900;SDS011;63461;51.416;6.758;2023-07-24T12:46:28;3.80;;;1.73;;
74900;SDS011;63461;51.416;6.758;2023-07-24T12:50:09;4.13;;;2.03;;
74900;SDS011;63461;51.416;6.758;2023-07-24T12:53:08;5.00;;;2.40;;
74900;SDS011;63461;51.416;6.758;2023-07-24T12:56:07;4.22;;;2.30;;
74900;SDS011;63461;51.416;6.758;2023-07-24T12:59:22;4.35;;;2.40;;
74900;SDS011;63461;51.416;6.758;2023-07-24T13:02:26;8.55;;;2.40;;
74900;SDS011;63461;51.416;6.758;2023-07-24T13:19:08;5.00;;;2.10;;
74900;SDS011;63461;51.416;6.758;2023-07-24T13:22:48;5.00;;;2.60;;
74900;SDS011;63461;51.416;6.758;2023-07-24T13:26:07;7.32;;;2.80;;
74900;SDS011;63461;51.416;6.758;2023-07-24T13:29:25;5.38;;;2.60;;
74900;SDS011;63461;51.416;6.758;2023-07-24T13:32:53;8.15;;;2.45;;
74900;SDS011;63461;51.416;6.758;2023-07-24T13:36:29;4.75;;;2.58;;
74900;SDS011;63461;51.416;6.758;2023-07-24T13:39:59;7.57;;;2.50;;
74900;SDS011;63461;51.416;6.758;2023-07-24T14:28:28;2.90;;;1.92;;
74900;SDS011;63461;51.416;6.758;2023-07-24T14:32:00;2.95;;;1.85;;
74900;SDS011;63461;51.416;6.758;2023-07-24T14:35:28;2.78;;;1.50;;
74900;SDS011;63461;51.416;6.758;2023-07-24T14:38:39;3.63;;;1.85;;
74900;SDS011;63461;51.416;6.758;2023-07-24T14:41:51;2.75;;;2.00;;
74900;SDS011;63461;51.416;6.758;2023-07-24T14:49:50;3.33;;;1.70;;
74900;SDS011;63461;51.416;6.758;2023-07-24T15:12:24;4.15;;;2.15;;
74900;SDS011;63461;51.416;6.758;2023-07-24T15:15:39;4.72;;;2.10;;
74900;SDS011;63461;51.416;6.758;2023-07-24T15:46:16;7.70;;;3.22;;
74900;SDS011;63461;51.416;6.758;2023-07-24T15:49:25;4.05;;;2.92;;
74900;SDS011;63461;51.416;6.758;2023-07-24T15:58:56;4.85;;;3.33;;
74900;SDS011;63461;51.416;6.758;2023-07-24T16:02:36;5.70;;;3.53;;
74900;SDS011;63461;51.416;6.758;2023-07-24T16:38:25;9.25;;;3.97;;
74900;SDS011;63461;51.416;6.758;2023-07-24T16:41:13;5.55;;;3.33;;
74900;SDS011;63461;51.416;6.758;2023-07-24T16:43:42;7.65;;;3.10;;
74900;SDS011;63461;51.416;6.758;2023-07-24T16:46:10;5.57;;;3.03;;
74900;SDS011;63461;51.416;6.758;2023-07-24T16:48:36;8.23;;;3.60;;
74900;SDS011;63461;51.416;6.758;2023-07-24T16:51:02;8.10;;;3.70;;
74900;SDS011;63461;51.416;6.758;2023-07-24T16:53:28;5.85;;;3.85;;
74900;SDS011;63461;51.416;6.758;2023-07-24T16:55:54;8.13;;;3.92;;
74900;SDS011;63461;51.416;6.758;2023-07-24T16:58:20;8.00;;;4.50;;
74900;SDS011;63461;51.416;6.758;2023-07-24T17:00:46;7.40;;;4.10;;
74900;SDS011;63461;51.416;6.758;2023-07-24T17:03:11;11.23;;;4.18;;
74900;SDS011;63461;51.416;6.758;2023-07-24T17:05:37;6.07;;;4.00;;
74900;SDS011;63461;51.416;6.758;2023-07-24T17:08:03;7.07;;;3.85;;
74900;SDS011;63461;51.416;6.758;2023-07-24T17:10:30;5.57;;;3.80;;
74900;SDS011;63461;51.416;6.758;2023-07-24T17:13:10;7.70;;;3.78;;
74900;SDS011;63461;51.416;6.758;2023-07-24T17:15:43;6.32;;;3.60;;
74900;SDS011;63461;51.416;6.758;2023-07-24T17:19:10;5.90;;;4.13;;
74900;SDS011;63461;51.416;6.758;2023-07-24T17:21:44;5.60;;;3.85;;
74900;SDS011;63461;51.416;6.758;2023-07-24T17:24:11;6.50;;;3.33;;
74900;SDS011;63461;51.416;6.758;2023-07-24T17:27:05;5.40;;;3.20;;
74900;SDS011;63461;51.416;6.758;2023-07-24T17:29:34;4.05;;;3.05;;
74900;SDS011;63461;51.416;6.758;2023-07-24T17:32:02;5.18;;;3.28;;
74900;SDS011;63461;51.416;6.758;2023-07-24T17:34:43;6.88;;;3.45;;
74900;SDS011;63461;51.416;6.758;2023-07-24T17:37:11;5.07;;;3.85;;
74900;SDS011;63461;51.416;6.758;2023-07-24T17:39:45;6.15;;;3.60;;
74900;SDS011;63461;51.416;6.758;2023-07-24T17:42:11;5.35;;;3.15;;
74900;SDS011;63461;51.416;6.758;2023-07-24T17:44:37;6.50;;;3.47;;
74900;SDS011;63461;51.416;6.758;2023-07-24T17:47:06;4.25;;;3.00;;
74900;SDS011;63461;51.416;6.758;2023-07-24T17:49:34;4.28;;;2.70;;
74900;SDS011;63461;51.416;6.758;2023-07-24T17:52:05;4.97;;;2.97;;
74900;SDS011;63461;51.416;6.758;2023-07-24T17:54:42;6.80;;;3.20;;
74900;SDS011;63461;51.416;6.758;2023-07-24T18:04:30;4.57;;;2.97;;
74900;SDS011;63461;51.416;6.758;2023-07-24T18:07:30;6.30;;;2.97;;
74900;SDS011;63461;51.416;6.758;2023-07-24T18:10:45;6.13;;;3.10;;
74900;SDS011;63461;51.416;6.758;2023-07-24T18:13:21;6.10;;;3.00;;
74900;SDS011;63461;51.416;6.758;2023-07-24T18:20:30;5.57;;;3.30;;
74900;SDS011;63461;51.416;6.758;2023-07-24T18:23:01;4.88;;;3.50;;
74900;SDS011;63461;51.416;6.758;2023-07-24T18:25:42;5.78;;;3.60;;
74900;SDS011;63461;51.416;6.758;2023-07-24T18:28:16;6.30;;;3.60;;
74900;SDS011;63461;51.416;6.758;2023-07-24T18:30:42;9.65;;;4.57;;
74900;SDS011;63461;51.416;6.758;2023-07-24T18:33:17;7.10;;;3.85;;
74900;SDS011;63461;51.416;6.758;2023-07-24T18:36:16;7.38;;;3.72;;
74900;SDS011;63461;51.416;6.758;2023-07-24T18:39:06;6.70;;;3.80;;
74900;SDS011;63461;51.416;6.758;2023-07-24T18:41:38;7.78;;;4.43;;
74900;SDS011;63461;51.416;6.758;2023-07-24T18:44:31;9.95;;;4.25;;
74900;SDS011;63461;51.416;6.758;2023-07-24T18:50:00;9.95;;;4.30;;
74900;SDS011;63461;51.416;6.758;2023-07-24T18:52:32;8.95;;;4.90;;
74900;SDS011;63461;51.416;6.758;2023-07-24T18:55:34;7.18;;;4.97;;
74900;SDS011;63461;51.416;6.758;2023-07-24T18:58:14;7.30;;;4.55;;
74900;SDS011;63461;51.416;6.758;2023-07-24T19:00:48;8.43;;;5.30;;
74900;SDS011;63461;51.416;6.758;2023-07-24T19:03:30;8.10;;;4.93;;
74900;SDS011;63461;51.416;6.758;2023-07-24T19:05:57;13.15;;;4.97;;
74900;SDS011;63461;51.416;6.758;2023-07-24T19:08:23;8.48;;;5.20;;
74900;SDS011;63461;51.416;6.758;2023-07-24T19:10:49;7.18;;;5.28;;
74900;SDS011;63461;51.416;6.758;2023-07-24T19:13:15;8.63;;;5.20;;
74900;SDS011;63461;51.416;6.758;2023-07-24T19:15:41;9.52;;;5.18;;
74900;SDS011;63461;51.416;6.758;2023-07-24T19:18:45;7.32;;;4.65;;
74900;SDS011;63461;51.416;6.758;2023-07-24T19:21:43;9.10;;;5.32;;
74900;SDS011;63461;51.416;6.758;2023-07-24T19:25:03;10.95;;;5.80;;
74900;SDS011;63461;51.416;6.758;2023-07-24T19:28:03;9.52;;;5.05;;
74900;SDS011;63461;51.416;6.758;2023-07-24T19:30:29;10.23;;;5.88;;
74900;SDS011;63461;51.416;6.758;2023-07-24T19:32:57;9.20;;;5.32;;
74900;SDS011;63461;51.416;6.758;2023-07-24T19:35:23;12.18;;;5.88;;
74900;SDS011;63461;51.416;6.758;2023-07-24T19:37:49;9.00;;;5.72;;
74900;SDS011;63461;51.416;6.758;2023-07-24T19:40:15;10.50;;;6.03;;
74900;SDS011;63461;51.416;6.758;2023-07-24T19:42:41;12.85;;;6.35;;
74900;SDS011;63461;51.416;6.758;2023-07-24T19:45:07;10.57;;;6.53;;
74900;SDS011;63461;51.416;6.758;2023-07-24T19:47:33;11.43;;;6.40;;
74900;SDS011;63461;51.416;6.758;2023-07-24T19:49:59;12.55;;;6.15;;
74900;SDS011;63461;51.416;6.758;2023-07-24T19:52:25;13.27;;;6.72;;
74900;SDS011;63461;51.416;6.758;2023-07-24T19:54:58;13.25;;;6.30;;
74900;SDS011;63461;51.416;6.758;2023-07-24T19:57:27;10.55;;;6.22;;
74900;SDS011;63461;51.416;6.758;2023-07-24T19:59:58;13.57;;;6.60;;
74900;SDS011;63461;51.416;6.758;2023-07-24T20:02:27;12.68;;;6.85;;
74900;SDS011;63461;51.416;6.758;2023-07-24T20:04:53;9.48;;;5.75;;
74900;SDS011;63461;51.416;6.758;2023-07-24T20:07:19;9.48;;;5.47;;
74900;SDS011;63461;51.416;6.758;2023-07-24T20:09:47;9.82;;;5.93;;
74900;SDS011;63461;51.416;6.758;2023-07-24T20:12:16;14.90;;;5.80;;
74900;SDS011;63461;51.416;6.758;2023-07-24T20:14:44;13.48;;;5.07;;
74900;SDS011;63461;51.416;6.758;2023-07-24T20:17:13;14.85;;;5.63;;
74900;SDS011;63461;51.416;6.758;2023-07-24T20:19:39;10.90;;;4.70;;
74900;SDS011;63461;51.416;6.758;2023-07-24T20:22:07;10.07;;;3.30;;
74900;SDS011;63461;51.416;6.758;2023-07-24T20:24:36;10.20;;;3.10;;
74900;SDS011;63461;51.416;6.758;2023-07-24T20:27:02;6.32;;;2.38;;
74900;SDS011;63461;51.416;6.758;2023-07-24T20:29:28;6.30;;;2.83;;
74900;SDS011;63461;51.416;6.758;2023-07-24T20:31:54;6.97;;;2.28;;
74900;SDS011;63461;51.416;6.758;2023-07-24T20:34:26;5.85;;;2.13;;
74900;SDS011;63461;51.416;6.758;2023-07-24T20:36:55;4.00;;;1.80;;
74900;SDS011;63461;51.416;6.758;2023-07-24T20:39:21;6.20;;;2.10;;
74900;SDS011;63461;51.416;6.758;2023-07-24T20:41:46;4.35;;;1.70;;
74900;SDS011;63461;51.416;6.758;2023-07-24T20:44:14;4.70;;;1.60;;
74900;SDS011;63461;51.416;6.758;2023-07-24T20:46:49;4.35;;;1.90;;
74900;SDS011;63461;51.416;6.758;2023-07-24T20:49:21;2.55;;;1.63;;
74900;SDS011;63461;51.416;6.758;2023-07-24T20:51:59;3.65;;;1.67;;
74900;SDS011;63461;51.416;6.758;2023-07-24T20:54:28;3.55;;;1.60;;
74900;SDS011;63461;51.416;6.758;2023-07-24T20:56:59;6.63;;;2.10;;
74900;SDS011;63461;51.416;6.758;2023-07-24T20:59:35;4.35;;;1.73;;
74900;SDS011;63461;51.416;6.758;2023-07-24T21:02:04;4.20;;;1.95;;
74900;SDS011;63461;51.416;6.758;2023-07-24T21:04:37;5.05;;;2.17;;